createdAt,value
2019-05-30T00:01:13.391Z,4.53
2019-05-30T00:03:42.216Z,4.90
2019-05-30T00:06:11.770Z,4.10
2019-05-30T00:08:40.579Z,4.40
2019-05-30T00:11:09.494Z,3.43
2019-05-30T00:13:38.321Z,4.40
2019-05-30T00:16:07.228Z,4.27
2019-05-30T00:18:36.372Z,4.10
2019-05-30T00:21:05.277Z,4.00
2019-05-30T00:23:34.434Z,3.13
2019-05-30T00:26:03.445Z,4.30
2019-05-30T00:28:32.327Z,3.80
2019-05-30T00:31:20.336Z,4.70
2019-05-30T00:33:49.195Z,3.43
2019-05-30T00:36:37.236Z,4.43
2019-05-30T00:39:06.936Z,3.30
2019-05-30T00:41:35.803Z,4.80
2019-05-30T00:44:06.166Z,3.67
2019-05-30T00:46:35.215Z,4.33
2019-05-30T00:49:04.560Z,4.47
2019-05-30T00:51:33.847Z,3.33
2019-05-30T00:54:02.916Z,4.23
2019-05-30T00:56:31.937Z,4.20
2019-05-30T00:59:19.960Z,4.20
2019-05-30T01:01:48.783Z,4.43
2019-05-30T01:04:17.676Z,3.55
2019-05-30T01:06:46.481Z,3.97
2019-05-30T01:09:15.437Z,3.90
2019-05-30T01:11:44.246Z,4.83
2019-05-30T01:14:13.299Z,3.60
2019-05-30T01:16:42.796Z,3.60
2019-05-30T01:19:11.819Z,4.47
2019-05-30T01:21:40.694Z,3.30
2019-05-30T01:24:09.683Z,3.17
2019-05-30T01:26:38.579Z,4.00
2019-05-30T01:29:07.839Z,3.53
2019-05-30T01:31:36.759Z,4.10
2019-05-30T01:34:06.130Z,3.73
2019-05-30T01:36:34.956Z,3.80
2019-05-30T01:39:05.901Z,3.70
2019-05-30T01:41:34.733Z,2.67
2019-05-30T01:44:04.115Z,3.43
2019-05-30T01:46:32.996Z,3.10
2019-05-30T01:49:02.323Z,3.20
2019-05-30T01:51:31.329Z,2.90
2019-05-30T01:54:00.509Z,2.90
2019-05-30T01:56:29.579Z,3.00
2019-05-30T01:58:58.675Z,2.83
2019-05-30T02:01:27.615Z,3.27
2019-05-30T02:03:56.422Z,2.37
2019-05-30T02:06:25.238Z,3.40
2019-05-30T02:08:54.147Z,2.53
2019-05-30T02:11:23.799Z,3.03
2019-05-30T02:13:52.697Z,2.30
2019-05-30T02:16:21.568Z,2.03
2019-05-30T02:18:50.372Z,2.20
2019-05-30T02:21:19.199Z,2.50
2019-05-30T02:23:48.014Z,2.87
2019-05-30T02:26:17.194Z,2.83
2019-05-30T02:28:46.032Z,2.50
2019-05-30T02:31:15.189Z,3.50
2019-05-30T02:33:44.007Z,3.27
2019-05-30T02:36:13.038Z,2.43
2019-05-30T02:38:42.169Z,2.20
2019-05-30T02:41:12.478Z,2.90
2019-05-30T02:43:41.850Z,3.43
2019-05-30T02:46:12.575Z,2.80
2019-05-30T02:48:58.144Z,3.60
2019-05-30T02:51:12.825Z,3.00
2019-05-30T02:53:41.875Z,2.47
2019-05-30T02:56:12.691Z,2.83
2019-05-30T02:58:41.793Z,2.70
2019-05-30T03:01:11.960Z,2.63
2019-05-30T03:03:41.535Z,3.43
2019-05-30T03:06:13.095Z,2.53
2019-05-30T03:08:41.245Z,3.03
2019-05-30T03:11:13.565Z,3.37
2019-05-30T03:13:41.120Z,2.60
2019-05-30T03:16:11.849Z,2.60
2019-05-30T03:18:40.757Z,3.47
2019-05-30T03:21:13.003Z,3.30
2019-05-30T03:23:41.155Z,2.23
2019-05-30T03:26:12.932Z,2.80
2019-05-30T03:28:40.808Z,4.00
2019-05-30T03:31:25.843Z,2.80
2019-05-30T03:33:42.777Z,2.60
2019-05-30T03:36:23.878Z,2.73
2019-05-30T03:38:43.450Z,2.60
2019-05-30T03:41:12.476Z,3.73
2019-05-30T03:43:41.677Z,2.40
2019-05-30T03:46:15.169Z,2.60
2019-05-30T03:48:46.921Z,3.30
2019-05-30T03:51:17.980Z,3.23
2019-05-30T03:53:47.214Z,2.50
2019-05-30T03:56:19.623Z,3.90
2019-05-30T03:59:05.770Z,3.77
2019-05-30T04:01:43.053Z,2.80
2019-05-30T04:04:17.017Z,3.17
2019-05-30T04:06:50.114Z,3.43
2019-05-30T04:09:24.681Z,3.57
2019-05-30T04:12:03.999Z,3.40
2019-05-30T04:14:36.249Z,4.30
2019-05-30T04:17:05.185Z,3.27
2019-05-30T04:19:34.035Z,4.80
2019-05-30T04:22:02.858Z,3.53
2019-05-30T04:24:31.734Z,3.70
2019-05-30T04:27:00.536Z,3.73
2019-05-30T04:29:29.403Z,3.23
2019-05-30T04:31:58.814Z,4.17
2019-05-30T04:34:27.642Z,3.45
2019-05-30T04:36:56.600Z,3.40
2019-05-30T04:42:00.943Z,3.53
2019-05-30T04:44:30.112Z,3.60
2019-05-30T04:46:58.965Z,3.20
2019-05-30T04:49:27.756Z,3.53
2019-05-30T04:51:56.588Z,3.70
2019-05-30T04:54:25.856Z,3.90
2019-05-30T04:59:29.911Z,3.80
2019-05-30T05:01:58.736Z,3.87
2019-05-30T05:04:27.526Z,2.80
2019-05-30T05:06:56.323Z,2.80
2019-05-30T05:09:25.118Z,4.10
2019-05-30T05:11:53.956Z,3.97
2019-05-30T05:14:22.895Z,3.60
2019-05-30T05:16:51.871Z,4.03
2019-05-30T05:19:25.429Z,3.63
2019-05-30T05:21:52.660Z,3.37
2019-05-30T05:24:22.004Z,3.13
2019-05-30T05:26:50.811Z,3.57
2019-05-30T05:29:19.943Z,3.83
2019-05-30T05:31:49.060Z,3.70
2019-05-30T05:34:18.536Z,4.00
2019-05-30T05:36:47.434Z,4.03
2019-05-30T05:39:16.475Z,3.17
2019-05-30T05:41:45.320Z,3.30
2019-05-30T05:44:16.136Z,3.23
2019-05-30T05:46:45.094Z,3.40
2019-05-30T05:49:14.016Z,4.40
2019-05-30T05:51:42.823Z,3.30
2019-05-30T05:54:12.070Z,4.07
2019-05-30T05:56:41.239Z,3.50
2019-05-30T05:59:10.338Z,3.93
2019-05-30T06:01:39.495Z,4.50
2019-05-30T06:04:12.973Z,3.30
2019-05-30T06:06:39.437Z,4.03
2019-05-30T06:09:08.678Z,3.90
2019-05-30T06:11:37.556Z,4.70
2019-05-30T06:14:06.572Z,3.27
2019-05-30T06:16:35.749Z,3.97
2019-05-30T06:19:05.020Z,3.97
2019-05-30T06:21:34.489Z,3.53
2019-05-30T06:24:03.361Z,3.43
2019-05-30T06:29:06.757Z,3.20
2019-05-30T06:31:35.556Z,5.70
2019-05-30T06:34:04.540Z,4.03
2019-05-30T06:36:33.712Z,3.80
2019-05-30T06:39:02.611Z,3.67
2019-05-30T06:41:31.421Z,3.33
2019-05-30T06:44:00.259Z,3.93
2019-05-30T06:46:30.460Z,3.33
2019-05-30T06:49:00.128Z,3.60
2019-05-30T06:51:29.176Z,2.80
2019-05-30T06:53:58.098Z,3.63
2019-05-30T06:56:27.496Z,4.53
2019-05-30T06:58:56.521Z,3.70
2019-05-30T07:01:25.830Z,3.90
2019-05-30T07:03:54.832Z,3.30
2019-05-30T07:06:25.397Z,3.53
2019-05-30T07:08:54.727Z,4.17
2019-05-30T07:11:24.665Z,4.07
2019-05-30T07:13:53.755Z,3.27
2019-05-30T07:16:23.365Z,2.70
2019-05-30T07:18:52.369Z,3.03
2019-05-30T07:21:21.311Z,2.83
2019-05-30T07:23:50.515Z,3.40
2019-05-30T07:26:19.344Z,3.50
2019-05-30T07:28:48.148Z,3.13
2019-05-30T07:31:16.953Z,3.10
2019-05-30T07:33:45.780Z,3.23
2019-05-30T07:36:14.678Z,2.90
2019-05-30T07:38:43.751Z,3.37
2019-05-30T07:41:12.743Z,3.47
2019-05-30T07:43:41.564Z,3.17
2019-05-30T07:46:10.880Z,2.57
2019-05-30T07:48:40.977Z,2.50
2019-05-30T07:51:09.935Z,4.00
2019-05-30T07:53:39.183Z,2.40
2019-05-30T07:56:08.273Z,2.43
2019-05-30T07:58:37.413Z,3.10
2019-05-30T08:01:06.445Z,3.30
2019-05-30T08:03:35.242Z,4.13
2019-05-30T08:06:04.452Z,3.43
2019-05-30T08:08:33.946Z,3.13
2019-05-30T08:11:09.436Z,3.03
2019-05-30T08:13:33.824Z,2.93
2019-05-30T08:16:02.638Z,2.40
2019-05-30T08:18:31.682Z,4.03
2019-05-30T08:21:00.572Z,2.47
2019-05-30T08:23:30.140Z,2.37
2019-05-30T08:25:59.078Z,2.80
2019-05-30T08:28:28.811Z,2.67
2019-05-30T08:30:58.087Z,2.60
2019-05-30T08:33:27.624Z,2.63
2019-05-30T08:35:56.435Z,2.40
2019-05-30T08:38:25.248Z,2.10
2019-05-30T08:40:54.080Z,2.90
2019-05-30T08:43:22.864Z,2.10
2019-05-30T08:45:51.753Z,2.50
2019-05-30T08:48:20.644Z,2.57
2019-05-30T08:50:49.515Z,3.40
2019-05-30T08:53:18.493Z,1.97
2019-05-30T08:55:47.863Z,1.70
2019-05-30T08:58:16.698Z,1.97
2019-05-30T09:00:45.976Z,1.70
2019-05-30T09:03:14.875Z,1.23
2019-05-30T09:05:59.330Z,2.07
2019-05-30T09:08:14.436Z,1.60
2019-05-30T09:10:44.425Z,1.73
2019-05-30T09:13:13.342Z,1.73
2019-05-30T09:15:42.998Z,2.03
2019-05-30T09:18:12.063Z,2.03
2019-05-30T09:20:41.948Z,1.93
2019-05-30T09:23:11.338Z,2.60
2019-05-30T09:25:41.432Z,1.80
2019-05-30T09:28:10.427Z,1.93
2019-05-30T09:30:41.146Z,1.90
2019-05-30T09:33:11.130Z,1.73
2019-05-30T09:35:41.347Z,1.53
2019-05-30T09:38:10.391Z,1.70
2019-05-30T09:40:40.858Z,1.87
2019-05-30T09:43:10.506Z,1.87
2019-05-30T09:45:39.595Z,1.83
2019-05-30T09:48:09.641Z,1.70
2019-05-30T09:50:38.478Z,1.60
2019-05-30T09:53:07.513Z,1.73
2019-05-30T09:55:36.391Z,1.60
2019-05-30T09:58:05.479Z,1.57
2019-05-30T10:00:34.550Z,1.10
2019-05-30T10:03:03.528Z,1.60
2019-05-30T10:05:32.481Z,2.17
2019-05-30T10:08:01.288Z,1.83
2019-05-30T10:10:30.306Z,1.63
2019-05-30T10:12:59.366Z,1.40
2019-05-30T10:15:28.359Z,1.93
2019-05-30T10:17:57.301Z,1.43
2019-05-30T10:20:27.764Z,1.37
2019-05-30T10:22:57.361Z,1.10
2019-05-30T10:25:26.641Z,0.93
2019-05-30T10:27:55.471Z,1.37
2019-05-30T10:30:25.095Z,1.70
2019-05-30T10:32:54.132Z,1.20
2019-05-30T10:35:24.280Z,1.00
2019-05-30T10:37:53.091Z,1.63
2019-05-30T10:40:22.136Z,1.13
2019-05-30T10:42:52.760Z,1.90
2019-05-30T10:45:22.811Z,1.47
2019-05-30T10:47:53.512Z,2.13
2019-05-30T10:50:23.123Z,1.10
2019-05-30T10:52:53.463Z,1.30
2019-05-30T10:55:23.164Z,1.20
2019-05-30T10:57:55.352Z,1.00
2019-05-30T11:00:25.856Z,0.90
2019-05-30T11:02:55.027Z,1.20
2019-05-30T11:05:24.271Z,1.10
2019-05-30T11:08:06.454Z,1.10
2019-05-30T11:10:38.122Z,0.97
2019-05-30T11:13:08.852Z,1.40
2019-05-30T11:15:37.936Z,1.20
2019-05-30T11:18:06.928Z,1.00
2019-05-30T11:20:35.897Z,1.60
2019-05-30T11:23:05.754Z,1.17
2019-05-30T11:25:34.711Z,1.23
2019-05-30T11:28:03.806Z,1.63
2019-05-30T11:30:33.144Z,1.10
2019-05-30T11:33:02.451Z,1.40
2019-05-30T11:35:31.888Z,1.23
2019-05-30T11:38:00.819Z,1.13
2019-05-30T11:40:29.787Z,0.83
2019-05-30T11:42:59.929Z,1.70
2019-05-30T11:45:29.300Z,1.00
2019-05-30T11:47:58.226Z,1.10
2019-05-30T11:50:27.860Z,1.33
2019-05-30T11:52:57.951Z,1.47
2019-05-30T11:55:27.161Z,1.37
2019-05-30T11:57:56.278Z,0.97
2019-05-30T12:00:27.001Z,1.60
2019-05-30T12:02:56.486Z,1.27
2019-05-30T12:05:26.461Z,1.40
2019-05-30T12:07:56.845Z,1.27
2019-05-30T12:10:26.766Z,1.40
2019-05-30T12:12:55.559Z,1.60
2019-05-30T12:15:24.510Z,0.83
2019-05-30T12:17:53.421Z,1.53
2019-05-30T12:20:22.664Z,1.30
2019-05-30T12:22:51.840Z,1.53
2019-05-30T12:25:21.548Z,1.50
2019-05-30T12:27:50.349Z,1.20
2019-05-30T12:30:21.136Z,1.40
2019-05-30T12:32:50.284Z,1.03
2019-05-30T12:35:19.725Z,1.53
2019-05-30T12:37:54.789Z,1.67
2019-05-30T12:40:19.839Z,2.70
2019-05-30T12:42:48.752Z,2.73
2019-05-30T12:45:18.313Z,5.53
2019-05-30T12:47:47.406Z,1.30
2019-05-30T12:50:17.171Z,1.43
2019-05-30T12:52:46.011Z,1.30
2019-05-30T12:55:15.166Z,1.23
2019-05-30T12:57:44.055Z,1.40
2019-05-30T13:00:18.303Z,1.40
2019-05-30T13:02:44.652Z,3.40
2019-05-30T13:05:13.900Z,1.40
2019-05-30T13:07:42.794Z,1.00
2019-05-30T13:10:12.184Z,1.10
2019-05-30T13:12:41.025Z,1.70
2019-05-30T13:15:10.508Z,1.10
2019-05-30T13:17:39.391Z,2.00
2019-05-30T13:20:09.382Z,1.30
2019-05-30T13:22:39.047Z,1.47
2019-05-30T13:25:08.449Z,2.20
2019-05-30T13:27:37.405Z,1.65
2019-05-30T13:30:06.940Z,1.83
2019-05-30T13:32:36.250Z,2.63
2019-05-30T13:35:07.508Z,2.30
2019-05-30T13:37:36.696Z,2.77
2019-05-30T13:40:23.618Z,1.80
2019-05-30T13:42:37.663Z,2.03
2019-05-30T13:45:08.195Z,3.23
2019-05-30T13:47:37.986Z,2.30
2019-05-30T13:50:12.706Z,2.13
2019-05-30T13:52:39.565Z,2.57
2019-05-30T13:55:10.271Z,2.70
2019-05-30T13:57:39.293Z,2.80
2019-05-30T14:00:08.839Z,2.50
2019-05-30T14:02:37.711Z,2.90
2019-05-30T14:05:08.294Z,2.90
2019-05-30T14:07:37.263Z,3.30
2019-05-30T14:10:08.663Z,3.47
2019-05-30T14:12:38.161Z,3.03
2019-05-30T14:15:10.496Z,2.10
2019-05-30T14:17:38.644Z,1.90
2019-05-30T14:20:09.520Z,2.83
2019-05-30T14:22:38.463Z,2.60
2019-05-30T14:25:08.020Z,2.20
2019-05-30T14:27:36.977Z,2.03
2019-05-30T14:30:06.671Z,2.20
2019-05-30T14:32:35.714Z,3.20
2019-05-30T14:35:06.427Z,5.00
2019-05-30T14:37:35.534Z,3.63
2019-05-30T14:40:06.413Z,2.20
2019-05-30T14:42:35.641Z,2.40
2019-05-30T14:45:06.401Z,2.33
2019-05-30T14:47:35.744Z,2.07
2019-05-30T14:50:06.599Z,2.30
2019-05-30T14:52:35.728Z,1.77
2019-05-30T14:55:05.287Z,2.87
2019-05-30T14:57:34.192Z,2.03
2019-05-30T15:00:03.128Z,2.20
2019-05-30T15:02:31.948Z,2.00
2019-05-30T15:05:00.825Z,2.10
2019-05-30T15:07:29.645Z,2.13
2019-05-30T15:09:58.444Z,1.73
2019-05-30T15:12:27.400Z,2.50
2019-05-30T15:14:56.613Z,2.23
2019-05-30T15:17:25.461Z,2.80
2019-05-30T15:19:54.255Z,2.73
2019-05-30T15:22:23.092Z,2.70
2019-05-30T15:24:51.912Z,3.90
2019-05-30T15:27:20.979Z,2.47
2019-05-30T15:29:49.907Z,3.13
2019-05-30T15:32:18.773Z,2.03
2019-05-30T15:34:47.948Z,2.23
2019-05-30T15:37:17.069Z,2.87
2019-05-30T15:39:46.160Z,2.80
2019-05-30T15:42:15.435Z,2.27
2019-05-30T15:44:44.724Z,2.50
2019-05-30T15:47:14.480Z,2.30
2019-05-30T15:49:43.587Z,5.93
2019-05-30T15:52:13.331Z,2.60
2019-05-30T15:54:42.359Z,2.40
2019-05-30T15:57:11.206Z,2.30
2019-05-30T15:59:40.048Z,2.37
2019-05-30T16:02:09.902Z,2.43
2019-05-30T16:04:38.764Z,2.10
2019-05-30T16:07:07.662Z,2.80
2019-05-30T16:09:46.678Z,2.63
2019-05-30T16:12:07.134Z,2.30
2019-05-30T16:14:35.947Z,2.50
2019-05-30T16:17:13.851Z,3.00
2019-05-30T16:19:42.883Z,2.80
2019-05-30T16:22:12.276Z,3.13
2019-05-30T16:24:41.376Z,2.60
2019-05-30T16:27:10.415Z,2.50
2019-05-30T16:29:39.243Z,2.10
2019-05-30T16:32:08.128Z,3.27
2019-05-30T16:34:37.300Z,2.30
2019-05-30T16:37:06.845Z,2.23
2019-05-30T16:39:35.650Z,2.33
2019-05-30T16:42:04.921Z,2.33
2019-05-30T16:44:33.727Z,2.27
2019-05-30T16:47:02.551Z,3.23
2019-05-30T16:49:31.347Z,2.40
2019-05-30T16:52:00.339Z,2.40
2019-05-30T16:54:32.750Z,2.60
2019-05-30T16:57:02.234Z,2.70
2019-05-30T16:59:31.061Z,4.30
2019-05-30T17:01:59.981Z,3.20
2019-05-30T17:04:28.835Z,2.47
2019-05-30T17:06:57.854Z,2.03
2019-05-30T17:09:27.681Z,3.00
2019-05-30T17:11:56.791Z,2.97
2019-05-30T17:14:25.954Z,2.23
2019-05-30T17:16:55.146Z,2.43
2019-05-30T17:19:24.531Z,2.00
2019-05-30T17:21:53.631Z,2.03
2019-05-30T17:24:22.994Z,2.30
2019-05-30T17:26:52.178Z,2.67
2019-05-30T17:29:21.544Z,2.60
2019-05-30T17:31:50.703Z,2.27
2019-05-30T17:34:19.914Z,2.00
2019-05-30T17:36:48.841Z,2.30
2019-05-30T17:39:18.903Z,2.50
2019-05-30T17:41:48.086Z,2.97
2019-05-30T17:44:16.973Z,2.37
2019-05-30T17:46:46.396Z,2.37
2019-05-30T17:49:15.284Z,3.40
2019-05-30T17:51:44.533Z,2.17
2019-05-30T17:54:14.087Z,3.07
2019-05-30T17:56:43.000Z,2.63
2019-05-30T17:59:12.084Z,2.60
2019-05-30T18:01:40.971Z,2.90
2019-05-30T18:04:10.007Z,2.60
2019-05-30T18:06:38.838Z,2.83
2019-05-30T18:09:07.898Z,2.47
2019-05-30T18:11:36.847Z,3.60
2019-05-30T18:14:06.167Z,2.30
2019-05-30T18:16:35.072Z,2.10
2019-05-30T18:19:04.435Z,1.97
2019-05-30T18:21:33.316Z,1.87
2019-05-30T18:24:02.752Z,2.10
2019-05-30T18:26:31.959Z,2.17
2019-05-30T18:29:00.988Z,1.77
2019-05-30T18:31:30.175Z,1.50
2019-05-30T18:33:59.538Z,2.47
2019-05-30T18:36:28.672Z,1.47
2019-05-30T18:38:57.669Z,1.73
2019-05-30T18:41:26.643Z,2.00
2019-05-30T18:43:55.736Z,1.60
2019-05-30T18:46:24.967Z,1.57
2019-05-30T18:48:54.317Z,2.00
2019-05-30T18:51:24.054Z,2.23
2019-05-30T18:53:53.332Z,2.33
2019-05-30T18:56:22.451Z,2.10
2019-05-30T18:58:51.281Z,2.50
2019-05-30T19:01:20.195Z,2.00
2019-05-30T19:03:49.092Z,2.20
2019-05-30T19:06:18.210Z,3.70
2019-05-30T19:08:47.463Z,1.83
2019-05-30T19:11:27.110Z,2.47
2019-05-30T19:13:47.513Z,1.90
2019-05-30T19:16:16.312Z,2.50
2019-05-30T19:18:45.324Z,1.90
2019-05-30T19:21:14.484Z,2.70
2019-05-30T19:23:43.656Z,2.37
2019-05-30T19:26:12.919Z,2.07
2019-05-30T19:28:42.085Z,1.80
2019-05-30T19:31:10.899Z,1.77
2019-05-30T19:33:39.759Z,2.37
2019-05-30T19:36:09.124Z,2.20
2019-05-30T19:38:37.952Z,2.40
2019-05-30T19:41:06.865Z,4.77
2019-05-30T19:43:36.029Z,2.37
2019-05-30T19:46:05.617Z,3.47
2019-05-30T19:48:34.808Z,3.20
2019-05-30T19:51:03.691Z,2.57
2019-05-30T19:53:32.942Z,2.57
2019-05-30T19:56:01.862Z,2.53
2019-05-30T19:58:31.558Z,2.80
2019-05-30T20:01:00.500Z,2.43
2019-05-30T20:03:38.598Z,2.80
2019-05-30T20:05:59.955Z,2.40
2019-05-30T20:08:44.874Z,3.03
2019-05-30T20:11:00.371Z,2.50
2019-05-30T20:13:29.200Z,2.33
2019-05-30T20:15:58.366Z,3.40
2019-05-30T20:18:27.206Z,2.10
2019-05-30T20:20:57.928Z,2.13
2019-05-30T20:23:26.616Z,3.27
2019-05-30T20:25:55.527Z,3.83
2019-05-30T20:28:25.157Z,3.37
2019-05-30T20:30:54.575Z,2.80
2019-05-30T20:33:23.938Z,3.30
2019-05-30T20:35:52.824Z,3.90
2019-05-30T20:38:21.818Z,4.40
2019-05-30T20:40:50.646Z,2.97
2019-05-30T20:43:19.516Z,2.60
2019-05-30T20:45:50.042Z,3.60
2019-05-30T20:48:18.974Z,3.53
2019-05-30T20:50:47.868Z,3.63
2019-05-30T20:53:20.172Z,2.90
2019-05-30T20:55:47.558Z,4.60
2019-05-30T20:58:16.450Z,3.90
2019-05-30T21:00:45.843Z,4.43
2019-05-30T21:03:14.760Z,4.30
2019-05-30T21:05:44.224Z,2.97
2019-05-30T21:08:14.521Z,3.80
2019-05-30T21:10:44.851Z,3.60
2019-05-30T21:13:13.816Z,4.87
2019-05-30T21:15:45.728Z,4.57
2019-05-30T21:18:14.935Z,3.93
2019-05-30T21:20:46.181Z,3.90
2019-05-30T21:23:15.455Z,4.33
2019-05-30T21:25:45.193Z,4.00
2019-05-30T21:28:14.150Z,4.00
2019-05-30T21:30:43.332Z,3.27
2019-05-30T21:33:12.614Z,4.60
2019-05-30T21:35:41.918Z,3.90
2019-05-30T21:38:11.047Z,4.40
2019-05-30T21:40:40.424Z,4.60
2019-05-30T21:43:09.319Z,4.47
2019-05-30T21:45:38.528Z,5.03
2019-05-30T21:48:07.922Z,4.10
2019-05-30T21:50:36.768Z,4.40
2019-05-30T21:53:05.574Z,5.07
2019-05-30T21:55:34.440Z,4.17
2019-05-30T21:58:03.359Z,4.63
2019-05-30T22:01:20.561Z,5.10
2019-05-30T22:03:50.893Z,4.60
2019-05-30T22:06:19.931Z,4.73
2019-05-30T22:09:08.652Z,4.23
2019-05-30T22:11:37.604Z,4.70
2019-05-30T22:14:07.204Z,4.30
2019-05-30T22:16:36.211Z,4.73
2019-05-30T22:19:05.861Z,4.83
2019-05-30T22:21:34.851Z,3.53
2019-05-30T22:24:03.832Z,4.37
2019-05-30T22:26:32.637Z,4.20
2019-05-30T22:29:01.437Z,4.20
2019-05-30T22:31:30.370Z,3.80
2019-05-30T22:33:59.419Z,5.30
2019-05-30T22:36:28.338Z,5.10
2019-05-30T22:38:57.217Z,5.17
2019-05-30T22:41:26.091Z,3.73
2019-05-30T22:43:54.944Z,5.00
2019-05-30T22:46:24.737Z,5.03
2019-05-30T22:48:53.603Z,4.67
2019-05-30T22:51:22.510Z,5.47
2019-05-30T22:53:51.583Z,5.07
2019-05-30T22:56:20.459Z,4.93
2019-05-30T22:58:50.159Z,4.20
2019-05-30T23:01:19.157Z,4.60
2019-05-30T23:03:49.070Z,4.53
2019-05-30T23:06:18.181Z,6.23
2019-05-30T23:08:48.426Z,4.50
2019-05-30T23:11:17.454Z,4.20
2019-05-30T23:13:46.371Z,6.07
2019-05-30T23:16:15.242Z,5.83
2019-05-30T23:18:44.255Z,5.20
2019-05-30T23:21:13.076Z,5.07
2019-05-30T23:23:41.932Z,4.10
2019-05-30T23:26:10.808Z,5.87
2019-05-30T23:28:39.615Z,4.97
2019-05-30T23:31:08.604Z,4.73
2019-05-30T23:33:37.423Z,5.43
2019-05-30T23:36:06.267Z,5.60
2019-05-30T23:38:35.451Z,5.00
2019-05-30T23:41:04.273Z,5.43
2019-05-30T23:43:33.496Z,5.27
2019-05-30T23:46:02.572Z,5.57
2019-05-30T23:48:31.423Z,4.50
2019-05-30T23:51:00.233Z,5.23
2019-05-30T23:53:29.028Z,5.40
2019-05-30T23:55:58.415Z,6.03
2019-05-30T23:58:27.402Z,5.97
